Arnas Barauskas

Chefscout - Siauliai
3 Dez 2028
Sonntag
Verarbeitung

Persönlichkeit

Anpassungsfähigkeit (20) Ehrgeiz (7) Kontroverse (10) Loyalität (9) Druck (12) Professionalität (4) Fairness (19) Temperament (18)

Profil

Trainerstil Demokratisch
Lizenz Kontinentale C
Entschlossenheit 6
Menschenführung 2
Motivation 6
Disziplin 7
Arbeitszufriedenheit
100%
Ermüdung
0%
Rolle Chefscout
Gehalt 43.1K p/W
Vertrag 14.03.2030

Leistung

Verhalten Gut
Trainingseffektivität
26%
Spielerentwicklung
10%
Verletzungsprävention
30%
Taktische Umsetzung
35%

Letzte Ereignisse

Spieler begutachtet jetzt
Nahm an einer Scouting-Besprechung teil jetzt
Nahm an einer Scouting-Besprechung teil jetzt
Spieler begutachtet jetzt
Nahm an einer Scouting-Besprechung teil 7T her
Nahm an einer Scouting-Besprechung teil 7T her
Spieler begutachtet 7T her
Spieler begutachtet 7T her

Aktuell beobachtet

198
Spieler Verein Status Fähigkeit Vertrauen Beobachtet Zuletzt beobachtet Letzte Stimme
Facundo Krüger Temperley Aktiv 128 / 114 40% 2 01.12.2028 -
Clemente Montes Santiago Wanderers Aktiv 108 / 105 40% 1 01.12.2028 -
Daniil Motorin Rubin Aktiv 95 / 100 40% 3 30.11.2028 -
Renzo Conechny Tristán Suárez Aktiv 101 / 91 40% 1 30.11.2028 -
Juan Carabajal Central Norte Aktiv 69 / 79 40% 1 28.11.2028 -
Chimobi Igwilo Rangers International Aktiv 93 / 97 40% 2 27.11.2028 -
Matías Sosa Arsenal Aktiv 108 / 93 40% 1 27.11.2028 -
Enzo González Defensores Aktiv 102 / 102 40% 1 24.11.2028 -
Lorenzo Barrera Agropecuario Argentino Aktiv 103 / 94 40% 2 22.11.2028 -
Gustavo Viera Cerro Largo Aktiv 92 / 103 40% 1 22.11.2028 -
Said Aliev Rotor Aktiv 96 / 105 40% 4 18.11.2028 -
Tomás Jerez San Miguel Aktiv 124 / 88 40% 1 18.11.2028 -
Marco Miori Alvarado Aktiv 95 / 111 40% 2 17.11.2028 -
Juan Peinipil Madryn Aktiv 112 / 100 40% 2 17.11.2028 -
Santiago Sala Güemes Aktiv 125 / 112 40% 1 22.08.2028 -
Abubakar Bonni Enyimba Aktiv 110 / 86 40% 1 22.08.2028 -
Modestas Jankauskas Utenis Aktiv 73 / 87 44% 1 07.08.2028 -
Josh Andrews Cheltenham Town Aktiv 104 / 103 40% 1 26.07.2028 -
Darius Barauskas Zalgiris Aktiv 54 / 64 44% 1 24.07.2028 -
Carlos Richards Bromley Aktiv 82 / 73 40% 1 17.07.2028 -
Andrea Mattioli Arzignano Aktiv 102 / 108 40% 1 17.07.2028 -
Dmitry Kuptsov Spartak Tambov Aktiv 95 / 89 40% 1 12.06.2028 -
Louis Appéré Cambridge United Aktiv 115 / 108 40% 1 12.06.2028 -
Dariuš Stankevičius Zalgiris Aktiv 79 / 90 44% 1 06.06.2028 -
Ilja Safronov Rotor Aktiv 115 / 102 40% 4 31.05.2028 Beobachten
Juan David Rueda Alianza Petrolera Aktiv 116 / 117 40% 2 17.01.2028 -
David Sangaré Ryazan Aktiv 100 / 98 40% 2 10.01.2028 -
Nathan Bishop AFC Wimbledon Aktiv 126 / 96 40% 1 10.01.2028 -
Vykintas Paulauskas Utenis Aktiv 62 / 61 41% 1 01.01.2028 -
Marcos Enrique Tristán Suárez Aktiv 99 / 128 40% 1 01.01.2028 -
Matías Machado Racing Aktiv 98 / 110 40% 1 01.01.2028 -
Alan Bonansea Colón Aktiv 123 / 99 40% 1 31.12.2027 -
Luis Olivera Defensores Unidos Aktiv 109 / 95 40% 1 31.12.2027 -
Alexandr Saplinov Volga Aktiv 102 / 106 40% 3 30.12.2027 -
Rodrigo Ramírez Nueva Chicago Aktiv 128 / 125 40% 1 30.12.2027 -
Stephen McMullan Fleetwood Town Aktiv 103 / 87 40% 1 30.12.2027 -
Ilja Agapov Ufa Aktiv 121 / 126 40% 1 28.12.2027 -
Steven Alfred Torpedo-BelAZ Aktiv 105 / 96 40% 3 26.12.2027 -
David Kokoev Yenisey Aktiv 101 / 101 40% 2 26.12.2027 -
Fernando Bersano Madryn Aktiv 116 / 99 40% 1 26.12.2027 -
Tiago Ferreyra Mitre Aktiv 94 / 120 40% 1 25.12.2027 -
Gianluca Pugliese Güemes Aktiv 99 / 112 40% 1 24.12.2027 -
Daniil Agureev Amkar Aktiv 84 / 92 40% 2 23.12.2027 -
Agustín Lavezzi Quilmes Aktiv 91 / 91 40% 2 23.12.2027 -
Maxim Kravtsov Neman Aktiv 96 / 83 40% 1 22.12.2027 -
Augustine Nwaorisa Enyimba Aktiv 116 / 92 40% 1 22.12.2027 -
Lisandro Cabrera Maipú Aktiv 112 / 122 40% 2 21.12.2027 -
Daniel Barrea Godoy Cruz Aktiv 127 / 121 40% 1 20.12.2027 -
Vladislav Fedosov Slutsk Aktiv 102 / 82 40% 1 18.12.2027 -
Petr Kosarevskiy Sibir Aktiv 119 / 117 40% 1 18.12.2027 -
Maxim Moskovets Uralets-TS Aktiv 84 / 81 40% 1 17.12.2027 -
Luciano Jachfe Nueva Chicago Aktiv 141 / 108 40% 1 17.12.2027 -
Gonzalo Gamarra Defensores Aktiv 122 / 118 40% 1 17.12.2027 -
Kamran Aliev SKA Khabarovsk Aktiv 106 / 105 40% 3 15.12.2027 -
Luca Franco Arsenal Aktiv 129 / 103 40% 1 15.12.2027 -
Emiliano Bermúdez Oriental Aktiv 87 / 114 40% 1 14.12.2027 -
Francisco Salerno Defensores Unidos Aktiv 120 / 91 40% 1 14.12.2027 -
Ilja Tuseev Chelyabinsk Aktiv 112 / 109 40% 1 12.12.2027 -
Hosea Michael Remo Stars Aktiv 89 / 89 40% 1 11.12.2027 -
Pedro Sanz Central Norte Aktiv 126 / 91 40% 1 11.12.2027 -
José Barreto Quilmes Aktiv 123 / 101 40% 1 08.12.2027 -
Semyon Yegorov Vitebsk Aktiv 105 / 99 40% 1 08.12.2027 -
Santiago Briñone San Martín Aktiv 120 / 116 40% 1 08.12.2027 -
Alexandr Butko Isloch Aktiv 75 / 90 40% 2 07.12.2027 -
Ilya Rutskiy Torpedo-BelAZ Aktiv 85 / 86 40% 1 07.12.2027 -
Francisco Campo Mina Slutsk Aktiv 78 / 76 40% 1 07.12.2027 -
Facundo Vila Estudiantes Aktiv 107 / 92 40% 1 07.12.2027 -
Kirill Tsepenkov Dnepr Mogilev Aktiv 91 / 92 40% 3 27.11.2027 -
Hleb Shikavka Lokomotiv Gomel Aktiv 85 / 72 40% 1 24.11.2027 -
Magomed Nasibov Pobeda Aktiv 78 / 84 40% 2 22.11.2027 -
Germán Cervera Alvarado Aktiv 104 / 106 40% 1 22.11.2027 -
Lautaro Gordillo Colegiales Aktiv 134 / 126 40% 1 21.11.2027 -
Juan Mendoza Güemes Aktiv 98 / 93 40% 1 19.11.2027 -
Stanislav Stefanovich Baranovichi Aktiv 79 / 91 40% 1 18.11.2027 -
Santiago Rodríguez Gimnasia y Esgrima Aktiv 140 / 126 40% 1 17.11.2027 -
Andrey Okladnikov Yenisey Aktiv 86 / 83 40% 2 31.05.2027 -
Nikita Rozhkov Saturn Aktiv 89 / 88 40% 1 31.05.2027 -
Yegor Noskov SKA Khabarovsk Aktiv 91 / 93 40% 2 30.05.2027 -
Maxim Khramtsov Rotor Aktiv 100 / 98 40% 3 30.05.2027 -
Alan Tsaraev Arsenal Tula Aktiv 109 / 107 40% 4 29.05.2027 -
Nikita Pechenkin Sokol Aktiv 114 / 112 40% 4 28.05.2027 -
Marko Bugarin Spartak Kostroma Aktiv 115 / 108 40% 2 28.05.2027 -
Pavel Maslov Chaika Aktiv 101 / 100 40% 2 27.05.2027 -
Kirill Bolshakov Arsenal Tula Aktiv 91 / 98 40% 2 22.05.2027 -
Daniil Marugin Shinnik Aktiv 96 / 87 40% 3 20.05.2027 -
Kazunari Kita Real Sociedad Aktiv 98 / 87 40% 1 19.05.2027 -
Vyacheslav Yakimov Fakel Aktiv 100 / 105 40% 1 19.05.2027 -
Danila Sukhomlinov Neftekhimik Aktiv 90 / 91 40% 1 16.05.2027 -
Garrik Levin Chelyabinsk Aktiv 101 / 113 40% 5 13.05.2027 -
Ruslan Baitukov Chelyabinsk Aktiv 101 / 94 40% 1 09.05.2027 -
Pablo García Gijón Aktiv 90 / 115 40% 1 09.05.2027 -
Artem Sokol Rodina Aktiv 107 / 112 40% 4 08.05.2027 -
Bojan Dimoski Akron Aktiv 110 / 102 40% 1 04.05.2027 -
Nikita Ponomarev Salyut Aktiv 80 / 75 40% 5 01.05.2027 -
Anton Sinyak Sokol Aktiv 88 / 83 40% 2 01.05.2027 -
Maxim Shnaptsev Baltika Aktiv 98 / 95 40% 2 28.04.2027 -
Nader Mohammadi Spartak Kostroma Aktiv 103 / 89 40% 2 27.04.2027 -
Saminu Abdullahi KAMAZ Aktiv 104 / 105 40% 4 27.04.2027 -
Daniil Penchikov Arsenal Tula Aktiv 102 / 104 40% 4 25.04.2027 -
Alexandr Krikunenko Salyut Aktiv 81 / 74 40% 1 20.04.2027 -
Darko Todorović Fakel Aktiv 115 / 109 40% 3 18.04.2027 -
Ilja Mamkin Luki-Energiya Aktiv 74 / 73 40% 1 18.04.2027 -
Stanislav Magkeev Fakel Aktiv 97 / 108 40% 1 13.04.2027 -
Eyad El Askalany Rostov Aktiv 104 / 99 40% 1 10.04.2027 -
Leo Goglichidze Rodina Aktiv 107 / 108 40% 1 05.04.2027 -
Islamzhan Nasyrov Ryazan Aktiv 100 / 81 40% 3 22.03.2027 -
Danil Stepanov Torpedo Moscow Aktiv 117 / 113 40% 2 22.03.2027 -
Vladislav Teplyakov Znamya Truda Aktiv 83 / 75 40% 2 21.03.2027 -
Ilnur Badrtdinov Metallurg Aktiv 75 / 71 40% 1 21.03.2027 -
Danila Vedernikov Orenburg Aktiv 97 / 99 40% 2 17.03.2027 -
Maxim Sedov Saturn Aktiv 95 / 75 40% 1 14.03.2027 -
Faruk Gogić Spartak Kostroma Aktiv 102 / 88 40% 1 13.03.2027 -
Kirill Bozhenov Sokol Aktiv 100 / 109 40% 2 11.03.2027 -
Maxim Vedeneev Metallurg Aktiv 99 / 88 40% 2 10.03.2027 -
Savely Nikiforov Zenit Aktiv 70 / 85 40% 1 10.03.2027 -
Kamil Ibragimov Volga Aktiv 84 / 99 40% 2 08.03.2027 -
Andrey Kostin Volga Aktiv 91 / 101 40% 1 03.03.2027 -
Evgeny Yevgenjev Ryazan Aktiv 88 / 93 40% 2 02.03.2027 -
David Shavlokhov Chernomorets Aktiv 111 / 95 40% 1 27.02.2027 -
Ivan Polyakov Chertanovo Aktiv 68 / 69 40% 1 26.02.2027 -
Nikolay Tolstopyatov Neftekhimik Aktiv 109 / 93 40% 1 23.02.2027 -
Kirill Malyarov Shinnik Aktiv 100 / 88 40% 1 22.02.2027 -
Khakim Kadykoev Spartak Nalchik Aktiv 80 / 83 40% 1 20.02.2027 -
Nikita Karmaev Arsenal Tula Aktiv 104 / 97 40% 1 12.02.2027 -
Vyacheslav Gordienko Orel Aktiv 81 / 67 40% 1 11.02.2027 -
Artemy Kosogorov Shinnik Aktiv 83 / 108 40% 2 08.02.2027 -
Iker Pozo Rodina Aktiv 126 / 127 40% 1 08.02.2027 -
Artem Isik Dinamo Vologda Aktiv 90 / 97 40% 1 07.02.2027 -
Andrey Khityaev Rotor Aktiv 100 / 101 40% 1 06.02.2027 -
Giorgi Kantaria Neftekhimik Aktiv 93 / 99 40% 1 03.02.2027 -
Ivan Maklakov Dinamo Bryansk Aktiv 85 / 72 40% 1 03.02.2027 -
Maxim Suprun Sevastopol Aktiv 76 / 81 40% 1 26.01.2027 -
Daniil Kondrakov KDV Tomsk Aktiv 79 / 92 40% 4 30.12.2026 -
Ilja Gruznov Khimik Aktiv 101 / 94 40% 3 29.12.2026 -
Serder Serderov Dinamo Makhachkala Aktiv 106 / 109 40% 3 29.12.2026 -
Robert Murić Floriana Aktiv 88 / 89 40% 1 29.12.2026 -
Vitaly Dunay (Karpenko) Chaika Aktiv 100 / 83 40% 1 29.12.2026 -
Omar Popov Dinamo St Petersburg Aktiv 88 / 81 40% 3 26.12.2026 -
Ilja Porokhov Shinnik Aktiv 101 / 80 40% 1 26.12.2026 -
Danil Akhatov Ufa Aktiv 89 / 77 40% 1 24.12.2026 -
Dmitry Lesnikov Volgar Aktiv 96 / 89 40% 2 23.12.2026 -
Dmitry Usov Textilschik Aktiv 84 / 96 40% 3 23.12.2026 -
Gbolahan Salami Aktiv 96 / 68 40% 1 23.12.2026 -
Aleksej Golijanin Sokol Aktiv 81 / 97 40% 4 21.12.2026 -
Mikhail Gainov Dinamo Stavropol Aktiv 77 / 90 40% 2 21.12.2026 -
Yegor Pankov Luki-Energiya Aktiv 66 / 84 40% 1 20.12.2026 -
Gocha Gogrichiani Volna Aktiv 70 / 71 40% 1 19.12.2026 -
Denis Rubanov Dinamo Stavropol Aktiv 92 / 79 40% 4 18.12.2026 -
Khyzyr Appaev Aktiv 105 / 92 40% 2 18.12.2026 -
Artem Stepanovich Sevastopol Aktiv 69 / 73 40% 2 17.12.2026 -
Zakhar Tarasenko Veles Aktiv 88 / 86 40% 2 17.12.2026 -
Franklin Sasere Birkirkara Aktiv 104 / 89 40% 1 16.12.2026 -
Alexey Antilevskiy Slavia Mozyr Aktiv 95 / 95 40% 2 14.12.2026 -
Stanislav Biblyk Chaika Aktiv 108 / 90 40% 2 14.12.2026 -
Gevork Sarkisyan Saturn Aktiv 66 / 87 40% 2 13.12.2026 -
Vladislav Yakovlev Volga Aktiv 103 / 92 40% 2 13.12.2026 -
Alexey Baev Dinamo St Petersburg Aktiv 62 / 73 40% 1 13.12.2026 -
Bilal Bilalov Dinamo Kirov Aktiv 71 / 89 40% 2 11.12.2026 -
Paolo Yrizar Chernomorets Aktiv 107 / 89 40% 1 11.12.2026 -
Vyacheslav Purak Rubin Yalta Aktiv 86 / 78 40% 2 09.12.2026 -
Vladislav Agalakov Metallurg Aktiv 85 / 86 40% 1 08.12.2026 -
Anton Gurylev Pobeda Aktiv 64 / 83 40% 1 07.12.2026 -
Merabi Uridia Fakel Aktiv 103 / 91 40% 1 07.12.2026 -
Soslan Lysenko Spartak Nalchik Aktiv 65 / 83 40% 2 04.12.2026 -
Ivan Matyushenko Alania Aktiv 88 / 75 40% 2 02.12.2026 -
Alexandr Olenev Nart Aktiv 79 / 95 40% 1 02.12.2026 -
Ismail Dibirov Dinamo Kirov Aktiv 80 / 89 40% 2 28.11.2026 -
Daouda Natama Minsk Aktiv 96 / 107 40% 1 25.11.2026 -
Andrey Domotsev Mashuk Aktiv 94 / 77 40% 2 24.11.2026 -
Matvey Martinkevich Dinamo Kirov Aktiv 86 / 85 40% 1 22.11.2026 -
Daniil Konoplev Dinamo Bryansk Aktiv 80 / 85 40% 1 21.11.2026 -
Maxim Kutovoy Salyut Aktiv 82 / 70 40% 1 21.11.2026 -
Vladislav Morozov Volgar Aktiv 94 / 94 40% 1 19.11.2026 -
Georgy Melkadze Akhmat Grozny Aktiv 105 / 111 40% 1 19.11.2026 -
Shamil Saaduev Pobeda Aktiv 72 / 72 40% 1 15.11.2026 -
Artem Yarkin Dinamo Barnaul Aktiv 73 / 71 40% 1 15.11.2026 -
Evgeny Voronin Volga Aktiv 83 / 90 40% 2 14.11.2026 -
Yordy Reyna Rodina Aktiv 116 / 121 40% 1 13.11.2026 -
Mikhail Ageev Kuban Aktiv 81 / 96 40% 3 12.11.2026 -
Sergey Gaiduk Salyut Aktiv 61 / 83 40% 1 26.10.2026 -
Ruslan Bolov Murom Aktiv 82 / 91 40% 2 23.10.2026 -
Sergey Gribov Dinamo Bryansk Aktiv 73 / 96 40% 2 22.10.2026 -
Bohdan Shmyhelskyi Avangard Aktiv 75 / 89 40% 1 19.10.2026 -
Nikita Kireev Dinamo Vologda Aktiv 68 / 78 40% 1 19.10.2026 -
Alexandr Komissarov Torpedo Vladimir Aktiv 59 / 70 40% 1 17.10.2026 -
Kirill Cheburakov Rostov Aktiv 82 / 94 40% 1 16.10.2026 -
Yegor Kortsov Dinamo Brest Aktiv 123 / 94 40% 1 14.10.2026 -
David Davidyan Rotor Aktiv 100 / 85 40% 1 13.10.2026 -
Igor Tursunov Kuban Aktiv 92 / 82 40% 1 13.10.2026 -
Ilja Kukharchuk Chernomorets Aktiv 101 / 83 40% 1 11.10.2026 -
Andrey Solovey Slavia Mozyr Aktiv 96 / 99 40% 1 09.10.2026 -
Evgeniy Shevchenko Slavia Mozyr Aktiv 92 / 107 40% 1 06.10.2026 -
Osman Koroma Tammeka Aktiv 82 / 87 40% 1 31.08.2026 -
Edvinas Slavickas Utenis Aktiv 74 / 87 37% 1 24.08.2026 -
Omran Haydary Suduva Aktiv 108 / 96 40% 1 05.08.2026 -
Andrey Yakovlev Dinamo Vologda Aktiv 77 / 101 40% 1 02.08.2026 -
Oleg Lanin Shinnik Aktiv 86 / 88 40% 1 02.08.2026 -
David Barbona Defensa y Justicia Aktiv 98 / 138 40% 1 01.08.2026 -